Time;durP1;ratioP1;P1;durP2;ratioP2;P2;SDS_P1;SDS_P2;PMS_P1;PMS_P2;Temp;Humidity;BMP_temperature;BMP_pressure;BME280_temperature;BME280_humidity;BME280_pressure;Samples;Min_cycle;Max_cycle;Signal;HPM_P1;HPM_P2
2023/07/08 00:00:26;;;;;;;7.15;3.38;;;;;;;;;;4893035;29;20039;-64
2023/07/08 00:02:52;;;;;;;6.07;2.70;;;;;;;;;;4893502;29;20950;-64
2023/07/08 00:05:19;;;;;;;7.20;2.95;;;;;;;;;;4892956;29;20024;-64
2023/07/08 00:07:46;;;;;;;5.72;3.20;;;;;;;;;;4893704;29;20064;-65
2023/07/08 00:10:13;;;;;;;6.65;3.00;;;;;;;;;;4893842;29;20036;-64
2023/07/08 00:12:40;;;;;;;7.68;3.17;;;;;;;;;;4892859;29;20515;-65
2023/07/08 00:15:06;;;;;;;7.45;3.33;;;;;;;;;;4891799;29;20028;-65
2023/07/08 00:17:32;;;;;;;6.40;3.58;;;;;;;;;;4890587;29;20035;-67
2023/07/08 00:19:58;;;;;;;5.78;3.20;;;;;;;;;;4893004;29;20032;-66
2023/07/08 00:22:24;;;;;;;7.53;3.65;;;;;;;;;;4892827;29;20032;-66
2023/07/08 00:24:51;;;;;;;12.10;3.70;;;;;;;;;;4892867;29;20403;-66
2023/07/08 00:27:17;;;;;;;7.72;3.80;;;;;;;;;;4893191;29;20498;-65
2023/07/08 00:29:43;;;;;;;8.90;3.92;;;;;;;;;;4892822;29;20040;-66
2023/07/08 00:32:13;;;;;;;7.43;3.25;;;;;;;;;;4891773;29;20495;-66
2023/07/08 00:34:40;;;;;;;6.50;3.22;;;;;;;;;;4892074;29;20050;-65
2023/07/08 00:37:06;;;;;;;8.73;3.65;;;;;;;;;;4892633;29;20050;-66
2023/07/08 00:39:32;;;;;;;7.65;3.28;;;;;;;;;;4892919;29;20035;-65
2023/07/08 00:42:00;;;;;;;8.85;3.13;;;;;;;;;;4892921;29;20106;-66
2023/07/08 00:44:26;;;;;;;12.10;3.65;;;;;;;;;;4892367;29;20046;-66
2023/07/08 00:46:58;;;;;;;7.30;3.45;;;;;;;;;;4893168;29;20042;-66
2023/07/08 00:49:28;;;;;;;7.18;3.63;;;;;;;;;;4893205;29;20113;-66
2023/07/08 00:51:54;;;;;;;6.20;3.25;;;;;;;;;;4892379;29;20044;-66
2023/07/08 00:54:20;;;;;;;7.82;3.33;;;;;;;;;;4891551;29;20043;-66
2023/07/08 00:56:53;;;;;;;8.35;3.78;;;;;;;;;;4892878;29;20036;-66
2023/07/08 00:59:21;;;;;;;5.93;3.33;;;;;;;;;;4893433;29;20972;-66
2023/07/08 01:01:48;;;;;;;7.45;3.80;;;;;;;;;;4892188;29;20071;-66
2023/07/08 01:04:14;;;;;;;7.07;3.20;;;;;;;;;;4891499;29;20055;-66
2023/07/08 01:06:44;;;;;;;10.25;3.38;;;;;;;;;;4892554;29;20193;-66
2023/07/08 01:09:12;;;;;;;7.22;3.22;;;;;;;;;;4892223;29;20377;-66
2023/07/08 01:11:39;;;;;;;9.43;3.78;;;;;;;;;;4890308;29;20110;-66
2023/07/08 01:14:06;;;;;;;6.55;3.33;;;;;;;;;;4892031;29;20187;-66
2023/07/08 01:16:33;;;;;;;7.30;3.28;;;;;;;;;;4891046;29;20148;-66
2023/07/08 01:19:00;;;;;;;8.43;3.50;;;;;;;;;;4893441;29;20063;-67
2023/07/08 01:21:31;;;;;;;7.03;3.65;;;;;;;;;;4892797;29;20035;-66
2023/07/08 01:23:57;;;;;;;7.30;3.78;;;;;;;;;;4892652;29;20167;-66
2023/07/08 01:26:27;;;;;;;7.80;3.47;;;;;;;;;;4893644;29;20035;-66
2023/07/08 01:28:54;;;;;;;10.15;3.75;;;;;;;;;;4891765;29;20052;-66
2023/07/08 01:31:22;;;;;;;9.25;3.67;;;;;;;;;;4891584;29;20036;-66
2023/07/08 01:33:48;;;;;;;7.22;3.40;;;;;;;;;;4892199;29;20036;-66
2023/07/08 01:36:14;;;;;;;8.63;3.58;;;;;;;;;;4891228;29;20028;-66
2023/07/08 01:38:40;;;;;;;9.68;3.78;;;;;;;;;;4891390;29;20123;-66
2023/07/08 01:41:06;;;;;;;5.70;3.75;;;;;;;;;;4891360;29;20070;-66
2023/07/08 01:43:32;;;;;;;7.43;3.50;;;;;;;;;;4892497;29;21819;-66
2023/07/08 01:46:02;;;;;;;9.23;3.67;;;;;;;;;;4893231;29;20075;-66
2023/07/08 01:48:31;;;;;;;7.97;3.92;;;;;;;;;;4892470;29;20705;-66
2023/07/08 01:51:03;;;;;;;8.48;4.50;;;;;;;;;;4893101;29;20034;-65
2023/07/08 01:53:33;;;;;;;6.28;3.22;;;;;;;;;;4892470;29;20035;-66
2023/07/08 01:56:00;;;;;;;9.45;4.25;;;;;;;;;;4894696;29;20127;-66
2023/07/08 01:58:27;;;;;;;6.55;3.30;;;;;;;;;;4892470;29;20039;-66
2023/07/08 02:00:54;;;;;;;9.10;4.05;;;;;;;;;;4891265;29;20127;-66
2023/07/08 02:03:20;;;;;;;10.98;4.10;;;;;;;;;;4891215;29;20035;-66
2023/07/08 02:05:46;;;;;;;6.75;3.17;;;;;;;;;;4891803;29;20449;-66
2023/07/08 02:08:12;;;;;;;8.10;4.45;;;;;;;;;;4891466;29;20605;-66
2023/07/08 02:10:39;;;;;;;9.85;3.50;;;;;;;;;;4890393;29;20056;-65
2023/07/08 02:13:05;;;;;;;6.97;3.65;;;;;;;;;;4891090;29;21204;-66
2023/07/08 02:15:31;;;;;;;7.75;4.03;;;;;;;;;;4890000;29;20075;-66
2023/07/08 02:17:58;;;;;;;10.75;3.97;;;;;;;;;;4891634;29;20063;-66
2023/07/08 02:20:24;;;;;;;8.18;4.10;;;;;;;;;;4890946;29;20067;-66
2023/07/08 02:22:50;;;;;;;9.93;4.30;;;;;;;;;;4890956;29;20090;-66
2023/07/08 02:25:16;;;;;;;7.25;4.15;;;;;;;;;;4890317;29;20201;-66
2023/07/08 02:27:42;;;;;;;7.85;3.78;;;;;;;;;;4890437;29;20064;-66
2023/07/08 02:30:09;;;;;;;7.03;3.85;;;;;;;;;;4891389;29;20035;-66
2023/07/08 02:32:38;;;;;;;8.88;4.18;;;;;;;;;;4891171;29;20154;-66
2023/07/08 02:35:05;;;;;;;9.50;3.97;;;;;;;;;;4889978;29;20087;-66
2023/07/08 02:37:32;;;;;;;8.32;4.18;;;;;;;;;;4891120;29;20056;-66
2023/07/08 02:39:58;;;;;;;8.43;3.80;;;;;;;;;;4890551;29;20127;-66
2023/07/08 02:42:24;;;;;;;7.65;3.90;;;;;;;;;;4891104;29;20032;-66
2023/07/08 02:44:50;;;;;;;8.05;3.83;;;;;;;;;;4891105;29;20488;-66
2023/07/08 02:47:16;;;;;;;7.78;4.10;;;;;;;;;;4870003;29;20395;-66
2023/07/08 02:49:42;;;;;;;8.68;3.80;;;;;;;;;;4890921;29;20031;-66
2023/07/08 02:52:08;;;;;;;9.02;4.13;;;;;;;;;;4891463;29;20090;-66
2023/07/08 02:54:34;;;;;;;7.95;4.32;;;;;;;;;;4890382;29;20044;-66
2023/07/08 02:57:00;;;;;;;6.80;4.22;;;;;;;;;;4891593;29;20083;-65
2023/07/08 02:59:29;;;;;;;7.80;4.25;;;;;;;;;;4890780;29;20506;-66
2023/07/08 03:01:55;;;;;;;9.02;4.07;;;;;;;;;;4891217;29;21818;-66
2023/07/08 03:04:21;;;;;;;8.50;4.32;;;;;;;;;;4889789;29;20091;-65
2023/07/08 03:06:48;;;;;;;11.43;4.78;;;;;;;;;;4890963;29;20036;-66
2023/07/08 03:09:14;;;;;;;8.43;4.32;;;;;;;;;;4891425;29;20040;-65
2023/07/08 03:11:40;;;;;;;8.43;4.13;;;;;;;;;;4890687;29;20039;-66
2023/07/08 03:14:06;;;;;;;8.40;4.35;;;;;;;;;;4890894;29;20031;-66
2023/07/08 03:16:32;;;;;;;6.82;3.95;;;;;;;;;;4890835;29;20036;-61
2023/07/08 03:18:59;;;;;;;9.85;4.35;;;;;;;;;;4890139;29;20048;-60
2023/07/08 03:21:25;;;;;;;6.80;3.65;;;;;;;;;;4890191;29;20032;-61
2023/07/08 03:23:51;;;;;;;7.03;4.10;;;;;;;;;;4890430;29;20566;-61
2023/07/08 03:26:19;;;;;;;8.50;4.63;;;;;;;;;;4890003;29;20028;-61
2023/07/08 03:28:45;;;;;;;10.15;4.32;;;;;;;;;;4890191;29;20075;-61
2023/07/08 03:31:12;;;;;;;7.28;4.45;;;;;;;;;;4889188;29;20033;-61
2023/07/08 03:33:38;;;;;;;9.05;4.45;;;;;;;;;;4889968;29;20476;-60
2023/07/08 03:36:12;;;;;;;9.30;4.63;;;;;;;;;;4889198;29;21398;-60
2023/07/08 03:38:38;;;;;;;23.98;4.65;;;;;;;;;;4890606;29;20138;-61
2023/07/08 03:41:05;;;;;;;8.85;3.88;;;;;;;;;;4889874;29;20043;-61
2023/07/08 03:43:31;;;;;;;8.07;4.88;;;;;;;;;;4890237;29;20083;-61
2023/07/08 03:45:57;;;;;;;8.43;4.22;;;;;;;;;;4889368;29;20036;-60
2023/07/08 03:48:23;;;;;;;8.75;4.15;;;;;;;;;;4890098;29;20040;-61
2023/07/08 03:50:49;;;;;;;8.80;4.97;;;;;;;;;;4890200;29;20036;-60
2023/07/08 03:53:15;;;;;;;7.20;3.83;;;;;;;;;;4890508;29;20158;-60
2023/07/08 03:55:41;;;;;;;7.57;4.38;;;;;;;;;;4889879;29;20586;-60
2023/07/08 03:58:08;;;;;;;6.78;4.10;;;;;;;;;;4890102;29;20500;-60
2023/07/08 04:00:34;;;;;;;8.25;4.63;;;;;;;;;;4878104;29;20099;-60
2023/07/08 04:03:00;;;;;;;7.75;4.20;;;;;;;;;;4890240;29;20063;-60
2023/07/08 04:05:26;;;;;;;8.38;4.45;;;;;;;;;;4888787;29;20036;-60
2023/07/08 04:07:53;;;;;;;7.47;4.30;;;;;;;;;;4889731;29;20036;-61
2023/07/08 04:10:19;;;;;;;7.35;4.00;;;;;;;;;;4889128;29;20717;-61
2023/07/08 04:12:45;;;;;;;11.45;4.32;;;;;;;;;;4891275;29;20032;-61
2023/07/08 04:15:12;;;;;;;6.80;3.90;;;;;;;;;;4890894;29;20028;-60
2023/07/08 04:17:40;;;;;;;7.45;4.00;;;;;;;;;;4890119;29;20039;-60
2023/07/08 04:20:08;;;;;;;9.45;4.50;;;;;;;;;;4889920;29;20032;-61
2023/07/08 04:22:34;;;;;;;8.85;4.15;;;;;;;;;;4890702;29;20036;-61
2023/07/08 04:25:00;;;;;;;7.82;4.25;;;;;;;;;;4889549;29;20047;-61
2023/07/08 04:27:26;;;;;;;8.85;4.22;;;;;;;;;;4889435;29;20131;-61
2023/07/08 04:29:52;;;;;;;13.45;4.18;;;;;;;;;;4891077;29;20036;-60
2023/07/08 04:32:18;;;;;;;11.77;4.93;;;;;;;;;;4889374;29;20044;-60
2023/07/08 04:34:44;;;;;;;8.13;4.20;;;;;;;;;;4888939;29;20096;-61
2023/07/08 04:37:12;;;;;;;9.35;4.55;;;;;;;;;;4888962;29;20044;-61
2023/07/08 04:39:38;;;;;;;7.78;4.10;;;;;;;;;;4891221;29;20131;-60
2023/07/08 04:42:04;;;;;;;7.15;4.03;;;;;;;;;;4891132;29;20036;-61
2023/07/08 04:44:32;;;;;;;8.52;4.35;;;;;;;;;;4891788;29;21216;-60
2023/07/08 04:46:59;;;;;;;11.30;4.65;;;;;;;;;;4895253;29;20031;-66
2023/07/08 04:49:31;;;;;;;8.18;4.07;;;;;;;;;;4895885;29;20031;-66
2023/07/08 04:51:59;;;;;;;7.50;4.72;;;;;;;;;;4895944;29;20698;-66
2023/07/08 04:54:25;;;;;;;7.00;4.03;;;;;;;;;;4896379;29;20055;-66
2023/07/08 04:56:52;;;;;;;7.55;3.80;;;;;;;;;;4895791;29;20048;-66
2023/07/08 04:59:19;;;;;;;7.40;3.90;;;;;;;;;;4895275;29;20032;-66
2023/07/08 05:01:46;;;;;;;7.93;4.43;;;;;;;;;;4895474;29;20040;-66
2023/07/08 05:04:13;;;;;;;9.77;4.38;;;;;;;;;;4894671;29;21329;-65
2023/07/08 05:06:39;;;;;;;8.00;4.18;;;;;;;;;;4893727;29;20032;-66
2023/07/08 05:09:05;;;;;;;6.55;3.78;;;;;;;;;;4894640;29;20042;-66
2023/07/08 05:11:32;;;;;;;7.03;3.97;;;;;;;;;;4895884;29;20123;-66
2023/07/08 05:13:58;;;;;;;8.48;4.15;;;;;;;;;;4895323;29;20032;-66
2023/07/08 05:16:25;;;;;;;9.50;4.50;;;;;;;;;;4895111;29;20126;-66
2023/07/08 05:18:51;;;;;;;7.53;4.03;;;;;;;;;;4895440;29;20044;-66
2023/07/08 05:21:18;;;;;;;9.48;3.85;;;;;;;;;;4895563;29;20040;-66
2023/07/08 05:23:45;;;;;;;9.25;4.68;;;;;;;;;;4895474;29;20048;-66
2023/07/08 05:26:11;;;;;;;7.00;4.18;;;;;;;;;;4895135;29;20036;-66
2023/07/08 05:28:37;;;;;;;6.88;3.55;;;;;;;;;;4894745;29;20052;-66
2023/07/08 05:31:03;;;;;;;7.60;4.13;;;;;;;;;;4895155;29;20036;-67
2023/07/08 05:33:31;;;;;;;7.00;3.70;;;;;;;;;;4894146;29;20036;-67
2023/07/08 05:35:57;;;;;;;6.88;3.35;;;;;;;;;;4894843;29;20032;-67
2023/07/08 05:38:23;;;;;;;7.63;4.00;;;;;;;;;;4894059;29;20079;-67
2023/07/08 05:40:50;;;;;;;7.07;4.03;;;;;;;;;;4893041;29;20075;-61
2023/07/08 05:43:17;;;;;;;6.90;3.60;;;;;;;;;;4893805;29;20024;-61
2023/07/08 05:45:43;;;;;;;7.10;3.53;;;;;;;;;;4894881;29;20040;-61
2023/07/08 05:48:10;;;;;;;7.72;4.15;;;;;;;;;;4894322;29;20040;-61
2023/07/08 05:50:36;;;;;;;7.05;3.50;;;;;;;;;;4894789;29;20032;-61
2023/07/08 05:53:02;;;;;;;6.03;3.65;;;;;;;;;;4893882;29;20146;-61
2023/07/08 05:55:28;;;;;;;7.03;3.47;;;;;;;;;;4892062;29;20067;-61
2023/07/08 05:57:54;;;;;;;11.13;4.28;;;;;;;;;;4891297;29;20748;-61
2023/07/08 06:00:20;;;;;;;6.65;3.55;;;;;;;;;;4893664;29;20464;-61
2023/07/08 06:02:46;;;;;;;8.02;3.40;;;;;;;;;;4894818;29;20028;-61
2023/07/08 06:05:12;;;;;;;10.98;4.28;;;;;;;;;;4894408;29;20093;-61
2023/07/08 06:07:38;;;;;;;9.23;3.70;;;;;;;;;;4894855;29;20036;-61
2023/07/08 06:10:04;;;;;;;8.57;3.60;;;;;;;;;;4864782;29;20068;-61
2023/07/08 06:12:31;;;;;;;6.88;3.35;;;;;;;;;;4893248;29;20043;-61
2023/07/08 06:14:57;;;;;;;7.18;4.13;;;;;;;;;;4890486;29;20040;-61
2023/07/08 06:17:23;;;;;;;6.18;3.67;;;;;;;;;;4893717;29;20091;-61
2023/07/08 06:19:49;;;;;;;11.73;4.00;;;;;;;;;;4893369;29;20046;-61
2023/07/08 06:22:15;;;;;;;9.32;3.33;;;;;;;;;;4893291;29;20047;-61
2023/07/08 06:24:42;;;;;;;7.28;3.60;;;;;;;;;;4892719;29;20082;-61
2023/07/08 06:27:08;;;;;;;8.15;3.25;;;;;;;;;;4892767;29;20045;-61
2023/07/08 06:29:34;;;;;;;11.02;3.92;;;;;;;;;;4893182;29;20032;-61
2023/07/08 06:32:00;;;;;;;7.38;3.65;;;;;;;;;;4893780;29;20073;-61
2023/07/08 06:34:26;;;;;;;6.85;3.40;;;;;;;;;;4893715;29;20575;-61
2023/07/08 06:36:52;;;;;;;8.25;3.42;;;;;;;;;;4894197;29;21452;-61
2023/07/08 06:39:19;;;;;;;8.63;4.07;;;;;;;;;;4893268;29;20646;-61
2023/07/08 06:41:45;;;;;;;8.50;3.80;;;;;;;;;;4893501;29;20047;-61
2023/07/08 06:44:12;;;;;;;7.88;3.13;;;;;;;;;;4893071;29;20028;-61
2023/07/08 06:46:38;;;;;;;8.90;3.15;;;;;;;;;;4893802;29;20047;-61
2023/07/08 06:49:08;;;;;;;8.27;3.45;;;;;;;;;;4892785;29;20091;-61
2023/07/08 06:51:34;;;;;;;6.47;2.70;;;;;;;;;;4893734;29;20032;-61
2023/07/08 06:54:04;;;;;;;7.00;3.03;;;;;;;;;;4893111;29;20730;-61
2023/07/08 06:56:30;;;;;;;6.88;3.13;;;;;;;;;;4891954;29;20492;-61
2023/07/08 06:58:57;;;;;;;6.88;3.42;;;;;;;;;;4893540;29;20035;-61
2023/07/08 07:01:23;;;;;;;5.78;3.13;;;;;;;;;;4893511;29;20454;-61
2023/07/08 07:03:50;;;;;;;9.52;3.78;;;;;;;;;;4893036;29;20039;-61
2023/07/08 07:06:17;;;;;;;6.57;3.40;;;;;;;;;;4892279;29;20028;-61
2023/07/08 07:08:43;;;;;;;7.75;3.63;;;;;;;;;;4893150;29;20175;-61
2023/07/08 07:11:09;;;;;;;7.13;3.35;;;;;;;;;;4893141;29;20174;-61
2023/07/08 07:13:35;;;;;;;6.07;3.47;;;;;;;;;;4893213;29;20094;-61
2023/07/08 07:16:01;;;;;;;8.20;3.10;;;;;;;;;;4897356;29;20068;-61
2023/07/08 07:18:27;;;;;;;6.60;3.22;;;;;;;;;;4897734;29;20074;-61
2023/07/08 07:20:54;;;;;;;5.70;2.92;;;;;;;;;;4898553;29;20055;-61
2023/07/08 07:23:21;;;;;;;7.68;3.30;;;;;;;;;;4898004;29;20051;-61
2023/07/08 07:25:47;;;;;;;7.88;3.30;;;;;;;;;;4897766;29;20028;-61
2023/07/08 07:28:17;;;;;;;6.63;2.92;;;;;;;;;;4897996;29;20044;-62
2023/07/08 07:30:44;;;;;;;9.82;3.35;;;;;;;;;;4898405;29;21351;-61
2023/07/08 07:33:10;;;;;;;5.95;3.20;;;;;;;;;;4899393;29;20043;-61
2023/07/08 07:35:36;;;;;;;7.82;3.10;;;;;;;;;;4898736;29;20032;-61
2023/07/08 07:38:02;;;;;;;5.38;2.88;;;;;;;;;;4898828;29;20521;-61
2023/07/08 07:40:28;;;;;;;7.22;3.22;;;;;;;;;;4898629;29;20851;-61
2023/07/08 07:42:54;;;;;;;6.85;2.95;;;;;;;;;;4897912;29;20790;-61
2023/07/08 07:45:22;;;;;;;6.97;2.80;;;;;;;;;;4897837;29;20032;-61
2023/07/08 07:47:48;;;;;;;5.80;2.80;;;;;;;;;;4898375;29;20811;-61
2023/07/08 07:50:14;;;;;;;5.68;3.03;;;;;;;;;;4897891;29;20064;-61
2023/07/08 07:52:41;;;;;;;6.78;2.95;;;;;;;;;;4897041;29;20044;-62
2023/07/08 07:55:08;;;;;;;7.60;3.53;;;;;;;;;;4898180;29;20036;-61
2023/07/08 07:57:34;;;;;;;6.85;2.97;;;;;;;;;;4897862;29;20064;-61
2023/07/08 08:00:00;;;;;;;7.43;2.83;;;;;;;;;;4898627;29;20123;-61
2023/07/08 08:02:26;;;;;;;6.70;3.33;;;;;;;;;;4896558;29;20027;-62
2023/07/08 08:04:52;;;;;;;6.00;3.42;;;;;;;;;;4897785;29;20044;-61
2023/07/08 08:07:18;;;;;;;7.75;3.00;;;;;;;;;;4897228;29;20122;-61
2023/07/08 08:09:44;;;;;;;6.00;3.20;;;;;;;;;;4898205;29;20111;-62
2023/07/08 08:12:11;;;;;;;6.72;2.85;;;;;;;;;;4896949;29;20063;-61
2023/07/08 08:14:37;;;;;;;8.32;3.05;;;;;;;;;;4898187;29;20118;-62
2023/07/08 08:17:04;;;;;;;6.88;3.28;;;;;;;;;;4898280;29;20028;-61
2023/07/08 08:19:31;;;;;;;6.28;3.10;;;;;;;;;;4898038;29;20490;-61
2023/07/08 08:21:57;;;;;;;9.68;2.95;;;;;;;;;;4901725;29;20028;-62
2023/07/08 08:24:23;;;;;;;5.53;3.10;;;;;;;;;;4900710;29;20036;-61
2023/07/08 08:26:49;;;;;;;10.18;3.30;;;;;;;;;;4900894;29;20032;-61
2023/07/08 08:29:15;;;;;;;4.78;2.63;;;;;;;;;;4901318;29;20119;-62
2023/07/08 08:31:41;;;;;;;5.20;3.00;;;;;;;;;;4901750;29;20040;-61
2023/07/08 08:34:07;;;;;;;6.32;2.42;;;;;;;;;;4901832;29;20036;-68
2023/07/08 08:36:33;;;;;;;5.88;2.97;;;;;;;;;;4900844;29;20040;-68
2023/07/08 08:38:59;;;;;;;8.98;3.10;;;;;;;;;;4900262;29;20088;-68
2023/07/08 08:41:34;;;;;;;5.35;2.67;;;;;;;;;;4899701;29;20044;-68
2023/07/08 08:44:02;;;;;;;7.68;3.00;;;;;;;;;;4900967;29;21445;-68
2023/07/08 08:46:35;;;;;;;5.40;2.88;;;;;;;;;;4900658;29;20900;-68
2023/07/08 08:49:27;;;;;;;5.93;2.87;;;;;;;;;;4891901;29;20031;-69
2023/07/08 08:51:54;;;;;;;4.80;2.53;;;;;;;;;;4898362;29;20163;-68
2023/07/08 08:54:20;;;;;;;6.40;2.95;;;;;;;;;;4901644;29;20043;-68
2023/07/08 08:57:01;;;;;;;8.25;2.90;;;;;;;;;;4902041;29;20023;-68
2023/07/08 08:59:46;;;;;;;5.82;2.80;;;;;;;;;;4900910;29;20554;-68
2023/07/08 09:02:18;;;;;;;11.52;3.03;;;;;;;;;;4900851;29;20102;-68
2023/07/08 09:04:45;;;;;;;8.18;3.00;;;;;;;;;;4888149;29;20096;-68
2023/07/08 09:07:17;;;;;;;5.43;2.67;;;;;;;;;;4900860;29;20032;-69
2023/07/08 09:09:48;;;;;;;22.93;3.47;;;;;;;;;;4901309;29;20032;-69
2023/07/08 09:12:17;;;;;;;5.72;2.67;;;;;;;;;;4898744;29;20476;-68
2023/07/08 09:14:43;;;;;;;4.97;2.58;;;;;;;;;;4899084;29;20107;-68
2023/07/08 09:17:09;;;;;;;5.30;2.70;;;;;;;;;;4899707;29;20091;-68
2023/07/08 09:19:40;;;;;;;7.22;2.90;;;;;;;;;;4900680;29;20069;-69
2023/07/08 09:22:26;;;;;;;5.78;2.80;;;;;;;;;;4900073;29;20040;-68
2023/07/08 09:24:56;;;;;;;7.10;2.88;;;;;;;;;;4900713;29;20147;-69
2023/07/08 09:27:22;;;;;;;6.18;2.83;;;;;;;;;;4899854;29;20052;-68
2023/07/08 09:29:48;;;;;;;5.85;2.75;;;;;;;;;;4900678;29;20112;-68
2023/07/08 09:32:19;;;;;;;10.13;3.08;;;;;;;;;;4899413;29;20099;-69
2023/07/08 09:34:51;;;;;;;8.52;2.65;;;;;;;;;;4900330;29;20745;-68
2023/07/08 09:37:30;;;;;;;6.17;2.77;;;;;;;;;;4899612;29;20476;-68
2023/07/08 09:39:58;;;;;;;6.53;2.67;;;;;;;;;;4898822;29;20476;-68
2023/07/08 09:42:27;;;;;;;5.30;2.15;;;;;;;;;;4900642;29;20036;-68
2023/07/08 09:44:55;;;;;;;4.65;2.05;;;;;;;;;;4901044;29;20081;-69
2023/07/08 09:47:34;;;;;;;5.13;2.45;;;;;;;;;;4900867;29;20036;-68
2023/07/08 09:50:00;;;;;;;6.80;2.97;;;;;;;;;;4900966;29;20120;-68
2023/07/08 09:52:26;;;;;;;5.40;2.70;;;;;;;;;;4900562;29;20835;-68
2023/07/08 09:54:52;;;;;;;6.72;2.55;;;;;;;;;;4900752;29;20631;-68
2023/07/08 09:57:18;;;;;;;5.90;2.83;;;;;;;;;;4900693;29;21077;-68
2023/07/08 09:59:49;;;;;;;6.32;2.50;;;;;;;;;;4899977;29;20039;-68
2023/07/08 10:02:21;;;;;;;3.92;2.40;;;;;;;;;;4900983;29;20039;-69
2023/07/08 10:04:47;;;;;;;4.05;2.35;;;;;;;;;;4900142;29;20396;-69
2023/07/08 10:07:17;;;;;;;7.95;2.85;;;;;;;;;;4900615;29;20477;-69
2023/07/08 10:09:43;;;;;;;5.45;2.50;;;;;;;;;;4898846;29;20760;-68
2023/07/08 10:12:12;;;;;;;4.75;2.50;;;;;;;;;;4899875;29;21210;-68
2023/07/08 10:14:41;;;;;;;4.70;2.58;;;;;;;;;;4899341;29;20616;-68
2023/07/08 10:17:12;;;;;;;5.20;2.80;;;;;;;;;;4899157;29;20032;-69
2023/07/08 10:19:38;;;;;;;6.82;3.10;;;;;;;;;;4899871;29;20168;-69
2023/07/08 10:22:04;;;;;;;5.25;2.65;;;;;;;;;;4900522;29;20060;-68
2023/07/08 10:24:52;;;;;;;5.32;2.65;;;;;;;;;;4899050;29;20042;-69
2023/07/08 10:27:18;;;;;;;10.10;3.42;;;;;;;;;;4899673;29;20186;-69
2023/07/08 10:29:49;;;;;;;7.18;2.80;;;;;;;;;;4900369;29;20617;-69
2023/07/08 10:32:15;;;;;;;5.72;2.95;;;;;;;;;;4900147;29;20098;-68
2023/07/08 10:34:45;;;;;;;5.65;2.67;;;;;;;;;;4900074;29;20579;-68
2023/07/08 10:37:22;;;;;;;8.65;2.85;;;;;;;;;;4900649;29;20106;-68
2023/07/08 10:39:48;;;;;;;11.25;3.33;;;;;;;;;;4898932;29;20032;-68
2023/07/08 10:42:22;;;;;;;6.90;3.17;;;;;;;;;;4898545;29;20039;-68
2023/07/08 10:44:51;;;;;;;6.90;3.05;;;;;;;;;;4899121;29;20027;-68
2023/07/08 10:47:39;;;;;;;5.15;2.67;;;;;;;;;;4899960;29;20059;-69
2023/07/08 10:50:17;;;;;;;4.95;2.58;;;;;;;;;;4899290;29;20035;-68
2023/07/08 10:52:43;;;;;;;5.38;2.35;;;;;;;;;;4899215;29;20511;-69
2023/07/08 10:55:18;;;;;;;6.20;3.03;;;;;;;;;;4898343;29;20582;-68
2023/07/08 10:58:05;;;;;;;8.63;3.10;;;;;;;;;;4899053;29;20035;-69
2023/07/08 11:00:34;;;;;;;5.63;2.92;;;;;;;;;;4897080;29;20091;-68
2023/07/08 11:03:00;;;;;;;8.80;2.95;;;;;;;;;;4894098;29;20038;-68
2023/07/08 11:05:38;;;;;;;7.90;3.22;;;;;;;;;;4898414;29;20027;-68
2023/07/08 11:08:11;;;;;;;7.18;2.63;;;;;;;;;;4895843;29;20869;-62
2023/07/08 11:10:58;;;;;;;5.00;2.80;;;;;;;;;;4892319;29;20016;-62
2023/07/08 11:13:26;;;;;;;4.50;2.35;;;;;;;;;;4881396;29;20829;-62
2023/07/08 11:15:58;;;;;;;7.80;2.65;;;;;;;;;;4897853;29;20059;-62
2023/07/08 11:18:25;;;;;;;10.13;2.97;;;;;;;;;;4894684;29;20035;-62
2023/07/08 11:20:54;;;;;;;8.10;3.35;;;;;;;;;;4899033;29;20035;-62
2023/07/08 11:23:25;;;;;;;5.20;2.70;;;;;;;;;;4895297;29;20487;-62
2023/07/08 11:25:52;;;;;;;7.65;3.08;;;;;;;;;;4897523;29;20044;-62
2023/07/08 11:28:19;;;;;;;16.25;3.88;;;;;;;;;;4898578;29;21916;-62
2023/07/08 11:30:47;;;;;;;6.15;2.63;;;;;;;;;;4897284;29;20043;-62
2023/07/08 11:33:14;;;;;;;11.82;2.97;;;;;;;;;;4899435;29;20040;-61
2023/07/08 11:35:51;;;;;;;5.53;3.05;;;;;;;;;;4895534;29;20087;-62
2023/07/08 11:38:19;;;;;;;5.63;2.53;;;;;;;;;;4899005;29;20043;-62
2023/07/08 11:40:55;;;;;;;6.43;3.60;;;;;;;;;;4900151;29;20032;-62
2023/07/08 11:43:22;;;;;;;7.82;3.13;;;;;;;;;;4899433;29;20035;-62
2023/07/08 11:45:49;;;;;;;5.63;2.85;;;;;;;;;;4899558;29;20064;-61
2023/07/08 11:48:17;;;;;;;7.97;3.28;;;;;;;;;;4900295;29;20035;-62
2023/07/08 11:50:46;;;;;;;6.75;3.13;;;;;;;;;;4898973;29;20027;-63
2023/07/08 11:53:13;;;;;;;6.22;3.20;;;;;;;;;;4897832;29;20114;-62
2023/07/08 11:55:56;;;;;;;5.53;3.22;;;;;;;;;;4898331;29;20036;-62
2023/07/08 11:58:33;;;;;;;6.30;3.05;;;;;;;;;;4898403;29;20027;-62
2023/07/08 12:00:59;;;;;;;9.20;3.25;;;;;;;;;;4899989;29;20055;-62
2023/07/08 12:03:33;;;;;;;6.18;3.20;;;;;;;;;;4899810;29;20503;-62
2023/07/08 12:06:05;;;;;;;5.70;3.40;;;;;;;;;;4899346;29;20028;-62
2023/07/08 12:08:36;;;;;;;8.60;3.15;;;;;;;;;;4900146;29;20516;-62
2023/07/08 12:11:02;;;;;;;8.02;3.40;;;;;;;;;;4898269;29;20051;-62
2023/07/08 12:13:28;;;;;;;8.48;3.25;;;;;;;;;;4899874;29;20039;-62
2023/07/08 12:15:54;;;;;;;5.30;3.33;;;;;;;;;;4883297;29;20140;-62
2023/07/08 12:18:22;;;;;;;7.50;3.13;;;;;;;;;;4899043;29;20558;-62
2023/07/08 12:20:54;;;;;;;6.28;3.33;;;;;;;;;;4899013;29;20043;-63
2023/07/08 12:23:22;;;;;;;7.03;3.33;;;;;;;;;;4898610;29;20047;-62
2023/07/08 12:25:48;;;;;;;7.20;3.33;;;;;;;;;;4899339;29;21004;-62
2023/07/08 12:28:14;;;;;;;8.55;3.53;;;;;;;;;;4899464;29;20074;-62
2023/07/08 12:30:41;;;;;;;9.82;3.47;;;;;;;;;;4898425;29;20055;-62
2023/07/08 12:33:15;;;;;;;6.85;3.15;;;;;;;;;;4899270;29;20041;-62
2023/07/08 12:35:42;;;;;;;9.73;3.30;;;;;;;;;;4898807;29;20042;-62
2023/07/08 12:38:21;;;;;;;7.10;3.15;;;;;;;;;;4899111;29;20059;-63
2023/07/08 12:40:47;;;;;;;5.25;3.00;;;;;;;;;;4899702;29;20099;-62
2023/07/08 12:43:13;;;;;;;6.18;3.17;;;;;;;;;;4888254;29;20040;-68
2023/07/08 12:45:39;;;;;;;7.60;3.50;;;;;;;;;;4897173;29;20059;-69
2023/07/08 12:48:05;;;;;;;8.20;3.15;;;;;;;;;;4898539;29;20032;-69
2023/07/08 12:50:31;;;;;;;5.30;3.08;;;;;;;;;;4898797;29;20044;-69
2023/07/08 12:52:57;;;;;;;7.13;3.22;;;;;;;;;;4898694;29;20036;-69
2023/07/08 12:55:24;;;;;;;6.75;3.03;;;;;;;;;;4896650;29;21094;-69
2023/07/08 12:57:52;;;;;;;6.32;3.15;;;;;;;;;;4898748;29;20044;-69
2023/07/08 13:00:23;;;;;;;8.63;3.65;;;;;;;;;;4898412;29;20040;-68
2023/07/08 13:02:51;;;;;;;6.95;3.22;;;;;;;;;;4898451;29;20070;-68
2023/07/08 13:05:17;;;;;;;7.80;2.90;;;;;;;;;;4898827;29;22022;-68
2023/07/08 13:07:44;;;;;;;5.90;3.20;;;;;;;;;;4901855;29;20127;-68
2023/07/08 13:10:21;;;;;;;5.93;3.42;;;;;;;;;;4902321;29;20673;-69
2023/07/08 13:12:49;;;;;;;5.55;2.80;;;;;;;;;;4902460;29;20028;-68
2023/07/08 13:15:20;;;;;;;6.30;3.10;;;;;;;;;;4898299;29;20042;-68
2023/07/08 13:17:47;;;;;;;5.57;3.30;;;;;;;;;;4901108;29;20044;-68
2023/07/08 13:20:17;;;;;;;6.00;3.33;;;;;;;;;;4901005;29;20050;-68
2023/07/08 13:22:44;;;;;;;7.90;3.45;;;;;;;;;;4901253;29;20131;-68
2023/07/08 13:25:14;;;;;;;9.25;3.65;;;;;;;;;;4901143;29;20066;-68
2023/07/08 13:27:40;;;;;;;7.43;3.50;;;;;;;;;;4901123;29;20062;-68
2023/07/08 13:30:16;;;;;;;5.68;3.15;;;;;;;;;;4900885;29;20064;-68
2023/07/08 13:32:42;;;;;;;6.82;3.50;;;;;;;;;;4901162;29;20055;-68
2023/07/08 13:35:21;;;;;;;7.22;3.30;;;;;;;;;;4900015;29;20054;-68
2023/07/08 13:37:49;;;;;;;8.40;3.42;;;;;;;;;;4900560;29;20032;-68
2023/07/08 13:40:16;;;;;;;9.10;3.47;;;;;;;;;;4900653;29;20039;-69
2023/07/08 13:42:47;;;;;;;8.13;3.90;;;;;;;;;;4899341;29;20082;-69
2023/07/08 13:45:16;;;;;;;6.25;3.50;;;;;;;;;;4899952;29;20039;-68
2023/07/08 13:47:42;;;;;;;6.28;3.60;;;;;;;;;;4898596;29;21383;-67
2023/07/08 13:50:15;;;;;;;8.85;3.65;;;;;;;;;;4897922;29;20126;-67
2023/07/08 13:52:43;;;;;;;6.35;3.33;;;;;;;;;;4899835;29;20023;-68
2023/07/08 13:55:16;;;;;;;5.63;3.30;;;;;;;;;;4899436;29;20040;-68
2023/07/08 13:57:42;;;;;;;7.32;3.65;;;;;;;;;;4899715;29;20035;-68
2023/07/08 14:00:08;;;;;;;8.68;4.05;;;;;;;;;;4898866;29;20155;-69
2023/07/08 14:02:35;;;;;;;6.88;4.53;;;;;;;;;;4899873;29;20044;-68
2023/07/08 14:05:03;;;;;;;7.88;4.88;;;;;;;;;;4900632;29;20035;-68
2023/07/08 14:07:32;;;;;;;10.43;4.85;;;;;;;;;;4900291;29;20031;-69
2023/07/08 14:09:58;;;;;;;9.73;6.05;;;;;;;;;;4900009;29;20035;-62
2023/07/08 14:12:24;;;;;;;9.23;6.15;;;;;;;;;;4900986;29;20123;-62
2023/07/08 14:14:51;;;;;;;12.23;7.63;;;;;;;;;;4900353;29;20119;-62
2023/07/08 14:17:23;;;;;;;10.80;8.13;;;;;;;;;;4900590;29;20031;-62
2023/07/08 14:19:49;;;;;;;10.23;8.07;;;;;;;;;;4900103;29;20036;-62
2023/07/08 14:22:26;;;;;;;9.10;6.57;;;;;;;;;;4900365;29;20054;-62
2023/07/08 14:24:53;;;;;;;10.98;7.38;;;;;;;;;;4900196;29;21537;-62
2023/07/08 14:27:19;;;;;;;13.02;8.23;;;;;;;;;;4900097;29;20114;-62
2023/07/08 14:29:47;;;;;;;10.55;7.30;;;;;;;;;;4899862;29;20060;-62
2023/07/08 14:32:15;;;;;;;10.77;6.25;;;;;;;;;;4900344;29;20080;-62
2023/07/08 14:34:42;;;;;;;10.40;7.00;;;;;;;;;;4900283;29;20039;-62
2023/07/08 14:37:15;;;;;;;11.75;6.68;;;;;;;;;;4900941;29;20114;-62
2023/07/08 14:39:41;;;;;;;8.65;6.68;;;;;;;;;;4899829;29;20166;-62
2023/07/08 14:42:17;;;;;;;10.73;6.30;;;;;;;;;;4900330;29;20080;-62
2023/07/08 14:44:44;;;;;;;9.32;6.30;;;;;;;;;;4899082;29;20040;-62